Time;durP1;ratioP1;P1;durP2;ratioP2;P2;SDS_P1;SDS_P2;PMS_P1;PMS_P2;Temp;Humidity;BMP_temperature;BMP_pressure;BME280_temperature;BME280_humidity;BME280_pressure;Samples;Min_cycle;Max_cycle;Signal;HPM_P1;HPM_P2
2023/01/28 00:02:06;;;;;;;38.10;19.10;;;;;;;5.44;91.54;100235.42;107801;1290;22005;-71
2023/01/28 00:04:31;;;;;;;40.20;19.20;;;;;;;5.47;92.05;100235.09;107859;1290;21988;-64
2023/01/28 00:06:57;;;;;;;40.60;18.50;;;;;;;5.50;91.97;100240.16;107807;1290;21992;-70
2023/01/28 00:09:23;;;;;;;38.30;17.80;;;;;;;5.54;91.80;100244.52;107854;1287;22058;-64
2023/01/28 00:11:50;;;;;;;38.30;19.00;;;;;;;5.55;91.64;100239.30;107903;1290;21987;-63
2023/01/28 00:14:18;;;;;;;37.40;18.20;;;;;;;5.58;91.44;100239.51;107826;1290;22084;-70
2023/01/28 00:16:47;;;;;;;37.00;18.30;;;;;;;5.62;91.40;100239.01;107829;1290;22031;-70
2023/01/28 00:19:13;;;;;;;41.20;19.60;;;;;;;5.76;90.35;100235.77;107791;1290;21993;-64
2023/01/28 00:21:39;;;;;;;38.70;18.80;;;;;;;5.80;89.53;100234.92;107735;1290;22018;-63
2023/01/28 00:24:08;;;;;;;39.00;18.20;;;;;;;5.81;88.85;100233.19;107842;1290;22032;-63
2023/01/28 00:26:34;;;;;;;35.20;17.50;;;;;;;5.81;88.37;100233.70;107778;1290;23666;-63
2023/01/28 00:29:00;;;;;;;42.10;19.30;;;;;;;5.81;88.12;100236.33;107855;1290;22007;-64
2023/01/28 00:31:26;;;;;;;39.00;19.30;;;;;;;5.84;88.75;100237.55;107835;1290;22035;-70
2023/01/28 00:33:53;;;;;;;37.90;18.00;;;;;;;5.89;88.77;100239.33;107700;1290;22026;-62
2023/01/28 00:36:20;;;;;;;36.00;18.20;;;;;;;5.93;88.31;100241.61;107864;1290;22007;-63
2023/01/28 00:38:54;;;;;;;34.20;17.40;;;;;;;5.94;87.89;100239.87;107901;1290;22034;-63
2023/01/28 00:41:21;;;;;;;41.50;19.30;;;;;;;5.94;87.87;100230.46;107994;1290;21993;-71
2023/01/28 00:43:48;;;;;;;36.00;18.30;;;;;;;5.96;88.01;100231.52;107956;1290;21995;-62
2023/01/28 00:46:14;;;;;;;34.30;17.10;;;;;;;5.99;87.88;100231.88;107822;1290;21993;-71
2023/01/28 00:48:42;;;;;;;36.40;17.90;;;;;;;5.99;87.38;100227.35;107823;1283;23843;-71
2023/01/28 00:51:11;;;;;;;38.40;19.90;;;;;;;5.94;87.74;100225.59;107878;1290;21997;-62
2023/01/28 00:53:38;;;;;;;33.40;18.30;;;;;;;5.92;87.74;100224.71;107916;1290;21993;-64
2023/01/28 00:56:05;;;;;;;37.50;19.40;;;;;;;5.92;87.45;100225.58;107080;1290;1015547;-63
2023/01/28 00:58:32;;;;;;;44.50;20.20;;;;;;;5.94;87.59;100223.50;107936;1290;22000;-64
2023/01/28 01:01:17;;;;;;;40.90;20.70;;;;;;;5.94;87.62;100224.38;107922;1290;21991;-63
2023/01/28 01:03:43;;;;;;;38.60;19.00;;;;;;;5.96;87.37;100224.02;107805;1290;21990;-63
2023/01/28 01:06:12;;;;;;;35.20;17.70;;;;;;;5.99;87.41;100216.89;107898;1290;21994;-63
2023/01/28 01:08:41;;;;;;;39.30;19.90;;;;;;;6.00;87.13;100217.79;107889;1289;23732;-71
2023/01/28 01:11:09;;;;;;;45.30;21.00;;;;;;;6.02;86.65;100215.89;107873;1287;21977;-70
2023/01/28 01:13:35;;;;;;;41.50;19.50;;;;;;;6.04;86.40;100213.98;107912;1289;21993;-70
2023/01/28 01:16:08;;;;;;;38.30;19.60;;;;;;;6.03;85.95;100209.45;107851;1289;22002;-69
2023/01/28 01:18:35;;;;;;;46.70;19.50;;;;;;;6.02;85.45;100211.00;107887;1289;21994;-70
2023/01/28 01:21:01;;;;;;;43.30;20.50;;;;;;;5.97;85.65;100210.96;107932;1289;22174;-69
2023/01/28 01:23:27;;;;;;;42.60;21.20;;;;;;;5.91;85.51;100210.08;107926;1289;21993;-64
2023/01/28 01:25:53;;;;;;;41.80;21.80;;;;;;;5.90;85.74;100208.15;107883;1289;23817;-64
2023/01/28 01:28:19;;;;;;;46.00;21.00;;;;;;;5.90;85.85;100191.61;107924;1289;21999;-65
2023/01/28 01:30:46;;;;;;;44.80;22.40;;;;;;;5.94;85.44;100192.84;107980;1289;21995;-63
2023/01/28 01:33:12;;;;;;;42.60;19.80;;;;;;;6.00;85.08;100192.86;107928;1289;21995;-65
2023/01/28 01:35:37;;;;;;;44.60;20.90;;;;;;;6.07;85.11;100186.99;107146;1277;1002338;-71
2023/01/28 01:38:03;;;;;;;46.00;21.90;;;;;;;6.13;84.63;100185.27;107893;1289;22034;-65
2023/01/28 01:40:29;;;;;;;42.30;21.60;;;;;;;6.11;84.25;100181.95;107874;1289;22007;-70
2023/01/28 01:42:54;;;;;;;40.60;20.30;;;;;;;6.13;84.40;100180.91;107953;1289;21993;-71
2023/01/28 01:45:20;;;;;;;42.40;20.30;;;;;;;6.18;85.05;100174.66;107925;1289;22052;-71
2023/01/28 01:47:47;;;;;;;42.60;22.90;;;;;;;6.19;83.92;100169.94;107921;1289;23726;-62
2023/01/28 01:50:35;;;;;;;42.70;21.50;;;;;;;6.14;83.30;100170.46;107868;1289;21997;-69
2023/01/28 01:53:12;;;;;;;45.00;21.40;;;;;;;6.23;83.33;100177.80;107790;1289;21991;-69
2023/01/28 01:55:39;;;;;;;41.30;20.50;;;;;;;6.26;82.78;100176.58;107923;1289;21992;-69
2023/01/28 01:58:08;;;;;;;44.10;21.60;;;;;;;6.22;83.04;100173.44;107867;1289;22575;-68
2023/01/28 02:00:34;;;;;;;39.70;20.30;;;;;;;6.21;83.03;100171.69;107953;1289;22046;-61
2023/01/28 02:03:00;;;;;;;42.40;21.70;;;;;;;6.24;82.67;100171.88;107869;1289;21987;-61
2023/01/28 02:05:25;;;;;;;44.70;22.10;;;;;;;6.17;82.43;100169.42;107899;1289;21997;-62
2023/01/28 07:18:37;;;;;;;36.00;22.00;;;;;;;2.12;100.00;100232.11;108032;1280;549907;-69
2023/01/28 07:21:08;;;;;;;38.30;22.20;;;;;;;5.28;100.00;100214.40;108297;1280;21987;-63
2023/01/28 07:23:34;;;;;;;36.60;21.10;;;;;;;5.75;99.57;100213.66;108297;1284;21985;-69
2023/01/28 07:26:01;;;;;;;32.80;18.70;;;;;;;5.85;97.34;100214.92;108295;1284;22033;-67
2023/01/28 07:28:31;;;;;;;28.40;16.90;;;;;;;6.00;96.25;100217.27;108292;1284;21974;-70
2023/01/28 07:30:57;;;;;;;32.50;17.50;;;;;;;6.23;92.88;100215.80;108036;1282;404170;-69
2023/01/28 07:33:24;;;;;;;34.40;18.30;;;;;;;6.35;91.19;100213.73;108485;1281;21999;-68
2023/01/28 07:35:49;;;;;;;27.40;15.80;;;;;;;6.48;90.24;100212.54;108478;1281;21997;-64
2023/01/28 07:38:15;;;;;;;26.10;16.00;;;;;;;6.58;88.98;100213.08;108492;1281;21979;-66
2023/01/28 07:40:44;;;;;;;29.60;16.00;;;;;;;6.70;88.74;100210.98;108522;1281;21995;-68
2023/01/28 07:43:10;;;;;;;24.60;15.20;;;;;;;6.77;87.82;100209.60;108559;1281;21986;-69
2023/01/28 07:45:37;;;;;;;29.40;16.80;;;;;;;6.78;86.52;100211.69;108495;1282;21996;-69
2023/01/28 07:48:06;;;;;;;27.30;16.10;;;;;;;6.77;85.63;100208.20;108574;1280;21980;-64
2023/01/28 07:50:34;;;;;;;33.20;18.20;;;;;;;6.77;85.32;100212.05;108494;1282;21987;-69
2023/01/28 07:53:02;;;;;;;32.20;18.40;;;;;;;6.69;86.19;100211.85;108546;1281;22096;-64
2023/01/28 07:55:28;;;;;;;27.80;15.40;;;;;;;6.66;86.19;100213.42;108466;1281;21982;-65
2023/01/28 07:57:55;;;;;;;30.10;15.50;;;;;;;6.71;85.53;100210.29;108444;1281;21980;-69
2023/01/28 08:00:22;;;;;;;25.10;15.20;;;;;;;6.69;84.80;100206.45;108518;1281;22003;-70
2023/01/28 08:02:48;;;;;;;26.50;15.30;;;;;;;6.63;83.99;100206.80;108472;1281;21984;-70
2023/01/28 08:05:18;;;;;;;29.20;14.80;;;;;;;6.64;83.02;100204.18;108442;1282;22147;-70
2023/01/28 08:07:44;;;;;;;24.00;14.40;;;;;;;6.62;83.80;100205.41;108504;1273;23103;-64
2023/01/28 08:10:11;;;;;;;25.30;14.90;;;;;;;6.64;84.33;100207.32;108508;1270;22124;-64
2023/01/28 08:12:38;;;;;;;29.50;16.20;;;;;;;6.67;84.50;100210.81;108498;1281;21987;-64
2023/01/28 08:15:06;;;;;;;24.20;14.20;;;;;;;6.67;83.56;100207.50;108509;1281;23065;-68
2023/01/28 08:17:32;;;;;;;23.90;14.40;;;;;;;6.71;82.99;100204.55;108514;1281;21991;-63
2023/01/28 08:19:57;;;;;;;21.50;13.30;;;;;;;6.74;84.06;100201.75;108479;1282;22062;-64
2023/01/28 08:22:24;;;;;;;29.20;15.60;;;;;;;6.78;83.21;100201.76;108453;1281;21987;-70
2023/01/28 08:24:50;;;;;;;25.70;14.10;;;;;;;6.75;81.70;100199.67;108486;1279;22006;-69
2023/01/28 08:27:16;;;;;;;21.40;13.00;;;;;;;6.73;82.22;100197.58;108441;1281;21981;-70
2023/01/28 08:29:44;;;;;;;27.70;13.80;;;;;;;6.71;81.85;100188.15;108469;1282;22171;-66
2023/01/28 08:32:10;;;;;;;23.30;13.60;;;;;;;6.74;81.86;100186.06;108500;1281;21992;-63
2023/01/28 08:34:35;;;;;;;25.80;14.90;;;;;;;6.74;81.48;100186.42;108526;1281;21982;-70
2023/01/28 08:37:01;;;;;;;22.70;13.50;;;;;;;6.78;82.61;100182.58;108539;1281;21994;-70
2023/01/28 08:39:27;;;;;;;25.30;14.40;;;;;;;6.80;81.63;100177.52;107701;1282;1002922;-69
2023/01/28 08:41:52;;;;;;;22.90;13.20;;;;;;;6.83;81.18;100173.16;108446;1281;21983;-70
2023/01/28 08:44:19;;;;;;;22.50;12.60;;;;;;;6.90;80.67;100179.25;108504;1281;21983;-70
2023/01/28 08:46:45;;;;;;;25.70;13.00;;;;;;;6.99;80.72;100176.47;108481;1281;22022;-69
2023/01/28 08:49:11;;;;;;;26.30;13.50;;;;;;;7.06;80.76;100178.55;108441;1282;21992;-64
2023/01/28 08:51:36;;;;;;;24.90;14.00;;;;;;;7.10;80.88;100174.70;108474;1281;21982;-63
2023/01/28 08:54:02;;;;;;;24.40;13.30;;;;;;;7.15;80.68;100176.27;108450;1281;21990;-70
2023/01/28 08:56:30;;;;;;;26.60;14.00;;;;;;;7.15;79.51;100174.00;108468;1274;21981;-63
2023/01/28 08:58:55;;;;;;;23.60;14.20;;;;;;;7.12;78.70;100167.38;108462;1281;21988;-70
2023/01/28 09:01:21;;;;;;;24.90;13.60;;;;;;;7.10;78.67;100163.70;108497;1281;22041;-63
2023/01/28 09:03:47;;;;;;;18.70;11.70;;;;;;;7.09;78.62;100161.25;108530;1281;23607;-69
2023/01/28 09:06:13;;;;;;;23.40;13.50;;;;;;;7.07;78.65;100155.34;108563;1281;22074;-70
2023/01/28 09:08:40;;;;;;;24.40;13.10;;;;;;;7.06;78.17;100150.64;108474;1281;22455;-71
2023/01/28 09:11:09;;;;;;;27.30;15.00;;;;;;;7.03;78.07;100148.38;108503;1282;22003;-69
2023/01/28 09:13:36;;;;;;;27.00;14.70;;;;;;;6.97;77.88;100146.11;108448;1282;21990;-70
2023/01/28 09:16:05;;;;;;;33.20;14.20;;;;;;;6.91;79.88;100148.91;108514;1282;21989;-70
2023/01/28 09:18:32;;;;;;;23.80;14.50;;;;;;;6.86;80.17;100148.21;108487;1281;22022;-65
2023/01/28 09:20:59;;;;;;;22.30;13.80;;;;;;;6.86;80.58;100149.77;108453;1278;21981;-71
2023/01/28 09:23:25;;;;;;;27.20;13.90;;;;;;;6.87;80.68;100148.38;108499;1281;21979;-70
2023/01/28 09:25:58;;;;;;;24.00;13.80;;;;;;;6.87;80.47;100142.80;108436;1281;22004;-71
2023/01/28 09:28:25;;;;;;;27.20;14.60;;;;;;;6.84;80.15;100147.70;108482;1282;23679;-71
2023/01/28 09:31:09;;;;;;;24.60;13.00;;;;;;;6.80;80.72;100147.70;108447;1281;22077;-64
2023/01/28 09:33:36;;;;;;;25.50;13.20;;;;;;;6.78;79.93;100140.20;108551;1282;21985;-70
2023/01/28 09:36:04;;;;;;;29.40;14.00;;;;;;;6.74;79.66;100138.11;108430;1282;22057;-71
2023/01/28 09:38:30;;;;;;;21.80;13.20;;;;;;;6.72;79.19;100134.27;108474;1281;21979;-65
2023/01/28 09:40:56;;;;;;;27.70;14.40;;;;;;;6.71;78.45;100130.43;108439;1276;22043;-71
2023/01/28 09:43:26;;;;;;;27.90;15.90;;;;;;;6.68;78.77;100132.01;108215;1281;21988;-71
2023/01/28 09:45:55;;;;;;;24.20;13.90;;;;;;;6.66;78.86;100134.09;108542;1281;21986;-72
2023/01/28 09:48:32;;;;;;;22.20;12.70;;;;;;;6.62;79.60;100132.88;108525;1281;21980;-72
2023/01/28 09:51:00;;;;;;;21.40;12.50;;;;;;;6.61;80.44;100127.31;108271;1281;23749;-71
2023/01/28 09:53:31;;;;;;;24.20;13.40;;;;;;;6.59;80.72;100131.67;108458;1281;21986;-71
2023/01/28 09:56:08;;;;;;;22.90;13.20;;;;;;;6.62;81.98;100128.52;108505;1281;23050;-64
2023/01/28 09:58:34;;;;;;;22.60;13.20;;;;;;;6.64;82.20;100126.95;108499;1280;23144;-71
2023/01/28 10:01:20;;;;;;;23.80;14.10;;;;;;;6.62;82.79;100121.90;108462;1281;21991;-73
2023/01/28 10:03:52;;;;;;;24.00;13.10;;;;;;;6.66;81.60;100124.85;108381;1281;21992;-65
2023/01/28 10:06:21;;;;;;;24.40;12.80;;;;;;;6.69;80.84;100127.46;108446;1270;21980;-64
2023/01/28 10:09:08;;;;;;;23.60;12.60;;;;;;;6.71;80.97;100124.67;108474;1281;21988;-65
2023/01/28 10:11:48;;;;;;;23.40;14.20;;;;;;;6.72;80.66;100117.35;108465;1281;22753;-73
2023/01/28 10:14:19;;;;;;;22.90;13.20;;;;;;;6.72;80.16;100118.05;108404;1281;21981;-75
2023/01/28 10:17:26;;;;;;;24.10;13.30;;;;;;;6.73;80.33;100112.48;108450;1282;21987;-64
2023/01/28 10:19:55;;;;;;;25.90;12.80;;;;;;;6.78;80.78;100110.91;108439;1281;23050;-72
2023/01/28 10:22:24;;;;;;;23.40;13.70;;;;;;;6.84;80.86;100110.20;108497;1281;21980;-63
2023/01/28 10:25:05;;;;;;;23.10;13.60;;;;;;;6.89;80.57;100105.30;108392;1281;23116;-72
2023/01/28 10:27:34;;;;;;;22.60;13.30;;;;;;;6.94;80.45;100100.59;108497;1279;21980;-64
2023/01/28 10:30:04;;;;;;;24.50;13.80;;;;;;;6.98;80.05;100099.89;108520;1282;22027;-71
2023/01/28 10:32:35;;;;;;;26.80;14.90;;;;;;;7.01;79.52;100104.41;107663;1280;1002746;-64
2023/01/28 10:35:02;;;;;;;26.50;15.20;;;;;;;7.02;79.61;100096.56;108402;1281;23618;-72
2023/01/28 10:37:33;;;;;;;30.60;14.10;;;;;;;7.06;79.42;100098.83;108502;1281;22050;-64
2023/01/28 10:40:01;;;;;;;23.10;12.80;;;;;;;7.09;78.04;100097.23;108512;1281;21985;-64
2023/01/28 10:42:34;;;;;;;23.90;15.30;;;;;;;7.14;77.57;100096.36;108233;1281;22773;-71
2023/01/28 10:45:21;;;;;;;26.80;14.20;;;;;;;7.17;77.86;100094.77;108508;1281;22023;-72
2023/01/28 10:47:53;;;;;;;28.30;15.30;;;;;;;7.20;77.64;100091.98;108351;1281;21997;-72
2023/01/28 10:50:23;;;;;;;25.70;14.10;;;;;;;7.16;76.88;100084.66;108468;1281;22108;-72
2023/01/28 10:52:58;;;;;;;24.10;14.90;;;;;;;7.13;77.65;100090.95;108439;1281;21988;-72
2023/01/28 10:55:27;;;;;;;24.50;14.70;;;;;;;7.11;77.37;100089.55;108485;1282;22445;-73
2023/01/28 10:57:56;;;;;;;27.50;14.20;;;;;;;7.12;77.45;100089.38;108508;1282;22024;-72
2023/01/28 11:00:29;;;;;;;22.40;13.20;;;;;;;7.17;76.70;100088.31;108460;1281;21973;-71
2023/01/28 11:02:55;;;;;;;25.00;14.20;;;;;;;7.22;76.72;100089.17;108236;1281;23486;-71
2023/01/28 11:05:29;;;;;;;25.80;14.40;;;;;;;7.22;76.68;100083.25;108438;1270;21987;-65
2023/01/28 17:16:25;;;;;;;71.00;38.00;;;;;;;1.99;100.00;100343.63;106620;1292;1002426;-58
2023/01/28 17:18:51;;;;;;;76.60;38.90;;;;;;;5.04;100.00;100342.25;107698;1292;22011;-59
2023/01/28 17:21:17;;;;;;;77.70;42.00;;;;;;;5.55;100.00;100346.88;107472;1295;21997;-60
2023/01/28 17:23:42;;;;;;;74.40;39.10;;;;;;;5.80;100.00;100349.50;107478;1295;22052;-63
2023/01/28 17:26:09;;;;;;;66.60;35.70;;;;;;;5.98;99.84;100349.80;107500;1295;22009;-63
2023/01/28 17:28:37;;;;;;;55.10;31.50;;;;;;;6.12;98.84;100354.44;107285;1292;301068;-65
2023/01/28 17:31:13;;;;;;;50.00;28.40;;;;;;;6.26;97.55;100360.25;107847;1293;22000;-64
2023/01/28 17:33:40;;;;;;;53.70;26.70;;;;;;;6.33;95.83;100362.38;107722;1293;24165;-60
2023/01/28 17:36:08;;;;;;;51.00;27.20;;;;;;;6.39;95.55;100363.11;107714;1293;21979;-60
2023/01/28 17:38:35;;;;;;;43.50;25.40;;;;;;;6.40;94.44;100361.55;107698;1293;22049;-60
2023/01/28 17:41:05;;;;;;;44.70;24.70;;;;;;;6.43;94.21;100364.86;107693;1293;22004;-64
2023/01/28 17:43:30;;;;;;;40.80;22.60;;;;;;;6.44;92.95;100368.88;107745;1293;22034;-64
2023/01/28 17:46:00;;;;;;;42.20;24.00;;;;;;;6.41;91.85;100369.55;107769;1293;22050;-63
2023/01/28 17:48:26;;;;;;;39.90;22.70;;;;;;;6.34;90.41;100370.59;107744;1293;21995;-65
2023/01/28 17:50:55;;;;;;;41.40;23.00;;;;;;;6.29;90.21;100369.50;107742;1293;21993;-65
2023/01/28 17:53:22;;;;;;;;;;;;;;;6.31;90.50;100371.77;107834;1293;21983;-64
2023/01/28 17:55:47;;;;;;;47.10;23.40;;;;;;;6.32;90.62;100377.36;107722;1293;22046;-61
2023/01/28 17:58:13;;;;;;;50.50;23.50;;;;;;;6.35;91.02;100379.83;107697;1293;21995;-65
2023/01/28 18:00:39;;;;;;;41.10;22.30;;;;;;;6.37;90.57;100378.27;107737;1293;22004;-65
2023/01/28 18:03:05;;;;;;;38.20;21.80;;;;;;;6.36;90.25;100377.73;107825;1293;22043;-61
2023/01/28 18:05:32;;;;;;;44.80;23.90;;;;;;;6.38;90.21;100381.94;107784;1293;21993;-60
2023/01/28 18:07:57;;;;;;;43.80;24.00;;;;;;;6.36;89.72;100379.65;107841;1293;22009;-62
2023/01/28 18:10:26;;;;;;;41.10;24.00;;;;;;;6.35;89.57;100377.04;107792;1293;22034;-61
2023/01/28 18:12:55;;;;;;;46.60;25.00;;;;;;;6.36;89.35;100379.30;107732;1293;22003;-64
2023/01/28 18:15:23;;;;;;;45.40;24.30;;;;;;;6.36;89.05;100376.34;107712;1293;22017;-64
2023/01/28 18:17:51;;;;;;;44.60;26.20;;;;;;;6.32;88.43;100373.54;107734;1293;21994;-60
2023/01/28 18:20:17;;;;;;;41.80;24.20;;;;;;;6.28;88.01;100375.42;107785;1293;22000;-60
2023/01/28 18:22:43;;;;;;;48.10;24.40;;;;;;;6.24;87.70;100377.48;107730;1293;21996;-64
2023/01/28 18:25:13;;;;;;;45.20;23.70;;;;;;;6.23;88.14;100380.80;107701;1293;21994;-64
2023/01/28 18:27:40;;;;;;;46.40;23.80;;;;;;;6.24;88.65;100380.46;107861;1293;21997;-64
2023/01/28 18:30:06;;;;;;;47.50;25.30;;;;;;;6.30;87.87;100380.14;107794;1289;21995;-60
2023/01/28 18:32:32;;;;;;;49.60;25.50;;;;;;;6.32;86.91;100383.11;107741;1293;22007;-64
2023/01/28 18:34:58;;;;;;;42.10;23.60;;;;;;;6.32;88.57;100385.91;107326;1293;22003;-63
2023/01/28 18:37:24;;;;;;;49.70;24.90;;;;;;;6.32;87.92;100389.73;107670;1289;21995;-63
2023/01/28 18:39:51;;;;;;;45.40;24.40;;;;;;;6.32;87.60;100388.17;106193;1293;1002902;-60
2023/01/28 18:42:16;;;;;;;44.70;23.70;;;;;;;6.29;86.54;100387.29;107679;1293;21998;-60
2023/01/28 18:44:43;;;;;;;46.40;23.00;;;;;;;6.26;86.78;100385.35;107108;1293;1002812;-59
2023/01/28 18:47:08;;;;;;;45.20;23.90;;;;;;;6.24;87.18;100389.34;107036;1282;1003218;-65
2023/01/28 18:49:34;;;;;;;49.90;26.70;;;;;;;6.24;87.22;100390.20;107741;1293;22001;-64
2023/01/28 18:52:00;;;;;;;49.80;27.10;;;;;;;6.24;86.82;100390.73;107708;1293;21998;-62
2023/01/28 18:54:26;;;;;;;48.90;25.10;;;;;;;6.25;86.98;100391.44;107735;1293;21968;-65
2023/01/28 18:56:52;;;;;;;48.90;25.50;;;;;;;6.27;87.01;100388.66;107777;1293;22029;-61
2023/01/28 18:59:17;;;;;;;46.10;24.90;;;;;;;6.30;86.53;100389.73;107837;1293;21993;-62
2023/01/28 19:01:46;;;;;;;41.30;24.50;;;;;;;6.31;85.68;100387.47;107819;1293;22011;-64
2023/01/28 19:04:14;;;;;;;44.80;23.80;;;;;;;6.31;85.80;100386.77;107782;1289;22946;-63
2023/01/28 19:06:40;;;;;;;56.40;28.80;;;;;;;6.28;85.29;100387.63;107006;1293;1002741;-63
2023/01/28 19:09:07;;;;;;;52.50;28.00;;;;;;;6.24;85.08;100387.25;107745;1293;21996;-64
2023/01/28 19:11:33;;;;;;;53.00;28.30;;;;;;;6.22;85.03;100387.58;107733;1293;22481;-63
2023/01/28 19:13:59;;;;;;;49.00;26.70;;;;;;;6.18;84.63;100383.39;107760;1293;22009;-59
2023/01/28 19:16:26;;;;;;;46.90;26.20;;;;;;;6.15;83.90;100382.85;107708;1293;21999;-64
2023/01/28 19:18:53;;;;;;;50.90;26.40;;;;;;;6.14;83.76;100382.50;107792;1293;22004;-63
2023/01/28 19:21:19;;;;;;;57.50;31.60;;;;;;;6.10;83.24;100381.08;107960;1290;22007;-63
2023/01/28 19:23:45;;;;;;;47.60;26.60;;;;;;;6.06;82.91;100378.45;107695;1293;22004;-60
2023/01/28 19:26:11;;;;;;;52.20;28.20;;;;;;;6.02;82.94;100377.19;107714;1292;21991;-63
2023/01/28 19:28:39;;;;;;;52.50;30.30;;;;;;;6.01;82.93;100377.17;107094;1293;1006167;-63
2023/01/28 19:31:05;;;;;;;57.60;29.60;;;;;;;6.00;83.36;100380.27;107799;1293;22460;-60
2023/01/28 19:33:30;;;;;;;53.90;29.50;;;;;;;5.96;82.66;100382.70;107750;1293;22004;-59
2023/01/28 19:35:57;;;;;;;54.80;29.70;;;;;;;5.94;84.11;100381.48;107672;1293;22037;-61
2023/01/28 19:38:24;;;;;;;62.10;33.20;;;;;;;5.90;82.79;100383.00;107923;1293;22002;-59
2023/01/28 19:40:49;;;;;;;57.30;29.80;;;;;;;5.87;82.47;100388.03;107872;1292;23777;-63
2023/01/28 19:43:15;;;;;;;52.10;28.30;;;;;;;5.84;82.28;100388.02;107849;1292;22017;-63
2023/01/28 19:45:41;;;;;;;58.90;31.70;;;;;;;5.85;82.43;100389.41;107823;1292;22043;-60
2023/01/28 19:48:07;;;;;;;56.80;30.30;;;;;;;5.82;82.83;100390.09;107708;1293;22045;-59
2023/01/28 19:50:33;;;;;;;71.00;35.80;;;;;;;5.76;82.96;100390.91;107786;1292;22000;-60
2023/01/28 19:52:59;;;;;;;60.50;34.10;;;;;;;5.72;83.06;100394.20;107561;1289;22006;-63
2023/01/28 19:55:24;;;;;;;60.10;32.70;;;;;;;5.69;82.38;100397.13;107708;1286;22000;-63
2023/01/28 19:57:50;;;;;;;57.30;27.90;;;;;;;5.68;82.85;100399.56;107747;1292;23468;-61
2023/01/28 20:00:17;;;;;;;50.60;28.30;;;;;;;5.74;83.29;100398.91;107783;1292;21993;-64
2023/01/28 20:02:43;;;;;;;53.00;28.00;;;;;;;5.76;82.47;100398.73;107786;1292;22124;-61
2023/01/28 20:05:09;;;;;;;50.30;27.10;;;;;;;5.76;82.25;100394.91;107707;1292;22744;-60
